Time;durP1;ratioP1;P1;durP2;ratioP2;P2;SDS_P1;SDS_P2;PMS_P1;PMS_P2;Temp;Humidity;BMP_temperature;BMP_pressure;BME280_temperature;BME280_humidity;BME280_pressure;Samples;Min_cycle;Max_cycle;Signal;HPM_P1;HPM_P2
2023/01/14 00:01:24;;;;;;;;;;;;;;;5.80;84.58;100349.16;106294;1288;59105;-73
2023/01/14 00:03:49;;;;;;;;;;;;;;;5.83;84.55;100352.23;106271;1288;73653;-73
2023/01/14 00:06:16;;;;;;;;;;;;;;;5.87;84.57;100355.31;106246;1288;59220;-73
2023/01/14 00:08:41;;;;;;;;;;;;;;;5.90;84.56;100353.27;106076;1288;59231;-73
2023/01/14 00:11:08;;;;;;;;;;;;;;;5.94;84.49;100357.21;106060;1293;58438;-73
2023/01/14 00:13:34;;;;;;;;;;;;;;;5.96;84.53;100357.04;106271;1288;59208;-73
2023/01/14 00:15:59;;;;;;;;;;;;;;;5.98;84.50;100352.59;106232;1288;59302;-73
2023/01/14 00:18:25;;;;;;;;;;;;;;;6.01;84.49;100357.04;106267;1287;59540;-73
2023/01/14 00:20:59;;;;;;;;;;;;;;;6.02;84.46;100356.70;106092;1289;59878;-73
2023/01/14 00:23:25;;;;;;;;;;;;;;;6.03;84.49;100355.49;106240;1288;59873;-73
2023/01/14 00:25:51;;;;;;;;;;;;;;;6.03;84.42;100362.85;106099;1289;59324;-73
2023/01/14 00:28:16;;;;;;;;;;;;;;;6.04;84.46;100360.29;106340;1287;59366;-73
2023/01/14 00:30:42;;;;;;;;;;;;;;;6.05;84.44;100362.85;106332;1288;58784;-73
2023/01/14 00:33:07;;;;;;;;;;;;;;;6.04;84.39;100362.34;106305;1287;59104;-73
2023/01/14 00:35:33;;;;;;;;;;;;;;;6.04;84.43;100364.73;106063;1288;59426;-73
2023/01/14 00:37:58;;;;;;;;;;;;;;;6.04;84.43;100364.56;106239;1287;59071;-73
2023/01/14 00:40:23;;;;;;;;;;;;;;;6.04;84.43;100368.16;106249;1288;58989;-73
2023/01/14 00:42:49;;;;;;;;;;;;;;;6.06;84.50;100369.86;106244;1287;59228;-73
2023/01/14 00:45:14;;;;;;;;;;;;;;;6.08;84.44;100370.20;106301;1288;58356;-73
2023/01/14 00:47:39;;;;;;;;;;;;;;;6.10;84.45;100369.86;105871;1292;59451;-73
2023/01/14 00:50:05;;;;;;;;;;;;;;;6.12;84.45;100367.45;105194;1288;61410;-73
2023/01/14 00:52:30;;;;;;;;;;;;;;;6.13;84.43;100368.48;105030;1288;61232;-73
2023/01/14 00:54:55;;;;;;;;;;;;;;;6.14;84.42;100371.90;105085;1290;61422;-73
2023/01/14 00:57:21;;;;;;;;;;;;;;;6.15;84.47;100373.10;105082;1288;61211;-73
2023/01/14 00:59:46;;;;;;;;;;;;;;;6.16;84.46;100373.95;105223;1288;61648;-73
2023/01/14 01:02:11;;;;;;;;;;;;;;;6.17;84.47;100381.83;105180;1288;59790;-73
2023/01/14 01:04:37;;;;;;;;;;;;;;;6.18;84.54;100380.45;105218;1288;61397;-73
2023/01/14 01:07:02;;;;;;;;;;;;;;;6.19;84.42;100387.13;105229;1288;61253;-72
2023/01/14 01:09:27;;;;;;;;;;;;;;;6.20;84.45;100385.07;105199;1288;61961;-73
2023/01/14 01:11:54;;;;;;;;;;;;;;;6.20;84.36;100380.63;106184;1287;59048;-73
2023/01/14 01:14:20;;;;;;;;;;;;;;;6.20;84.31;100386.45;106069;1288;59337;-73
2023/01/14 01:16:45;;;;;;;;;;;;;;;6.21;84.32;100384.04;106299;1288;59055;-73
2023/01/14 01:19:10;;;;;;;;;;;;;;;6.22;84.27;100389.86;106152;1288;59258;-73
2023/01/14 01:21:36;;;;;;;;;;;;;;;6.23;84.29;100394.98;106326;1287;59113;-73
2023/01/14 01:24:01;;;;;;;;;;;;;;;6.26;84.29;100393.58;106288;1288;58955;-73
2023/01/14 01:26:26;;;;;;;;;;;;;;;6.28;84.29;100397.17;106249;1288;58684;-73
2023/01/14 01:28:53;;;;;;;;;;;;;;;6.31;84.33;100391.70;105800;1287;59506;-73
2023/01/14 01:31:19;;;;;;;;;;;;;;;6.33;84.25;100396.31;105146;1288;61257;-72
2023/01/14 01:33:44;;;;;;;;;;;;;;;6.35;84.26;100395.96;105014;1289;61296;-72
2023/01/14 01:36:10;;;;;;;;;;;;;;;6.36;84.22;100395.97;105190;1291;61192;-72
2023/01/14 01:38:36;;;;;;;;;;;;;;;6.36;84.21;100396.14;105258;1288;59654;-72
2023/01/14 01:41:01;;;;;;;;;;;;;;;6.36;84.18;100391.34;104956;1289;61230;-72
2023/01/14 01:43:31;;;;;;;;;;;;;;;6.36;84.23;100394.08;105092;1289;61214;-73
2023/01/14 01:45:57;;;;;;;;;;;;;;;6.37;84.18;100395.45;105208;1289;60046;-73
2023/01/14 01:48:22;;;;;;;;;;;;;;;6.37;84.23;100400.41;105232;1291;61231;-73
2023/01/14 01:50:51;;;;;;;;;;;;;;;6.38;84.15;100398.88;105252;1288;59534;-73
2023/01/14 01:53:16;;;;;;;;;;;;;;;6.39;84.23;100399.55;105001;1288;70753;-73
2023/01/14 01:55:46;;;;;;;;;;;;;;;6.39;84.25;100399.38;105238;1288;61242;-73
2023/01/14 01:58:11;;;;;;;;;;;;;;;6.38;84.10;100404.02;105171;1288;61124;-73
2023/01/14 02:00:37;;;;;;;;;;;;;;;6.37;84.16;100403.15;105090;1288;61305;-72
2023/01/14 02:03:04;;;;;;;;;;;;;;;6.35;84.04;100398.36;105035;1288;61390;-72
2023/01/14 02:05:30;;;;;;;;;;;;;;;6.32;84.04;100403.50;105202;1291;63729;-72
2023/01/14 02:07:57;;;;;;;;;;;;;;;6.27;84.02;100404.72;105213;1287;61234;-72
2023/01/14 02:10:25;;;;;;;;;;;;;;;6.22;83.99;100406.63;105109;1288;59321;-72
2023/01/14 02:13:00;;;;;;;;;;;;;;;6.18;83.93;100413.48;105246;1287;73870;-72
2023/01/14 02:15:46;;;;;;;;;;;;;;;6.12;83.97;100415.03;105128;1288;69183;-72
2023/01/14 02:18:17;;;;;;;;;;;;;;;6.05;83.93;100415.55;105179;1287;71186;-73
2023/01/14 02:21:12;;;;;;;;;;;;;;;6.01;83.90;100418.98;105217;1287;60579;-73
2023/01/14 02:23:57;;;;;;;;;;;;;;;5.96;83.97;100418.64;104671;1298;61293;-73
2023/01/14 02:26:46;;;;;;;;;;;;;;;5.92;83.98;100422.05;104884;1287;73998;-73
2023/01/14 02:29:30;;;;;;;;;;;;;;;5.87;83.97;100424.92;105205;1288;68746;-73
2023/01/14 02:32:01;;;;;;;;;;;;;;;5.83;84.01;100428.18;105200;1287;72813;-72
2023/01/14 02:34:26;;;;;;;;;;;;;;;5.80;83.97;100429.72;105270;1288;59638;-72
2023/01/14 02:36:56;;;;;;;;;;;;;;;5.76;83.97;100435.70;105239;1288;61279;-72
2023/01/14 02:39:21;;;;;;;;;;;;;;;5.75;84.01;100444.08;105246;1288;74300;-73
2023/01/14 02:44:51;;;;;;;;;;;;;;;5.74;84.00;100453.83;105210;1288;72719;-73
2023/01/14 02:47:19;;;;;;;;;;;;;;;5.73;83.94;100465.80;104962;1288;244308;-73
2023/01/14 02:49:46;;;;;;;;;;;;;;;5.74;84.05;100464.09;105215;1289;61045;-73
2023/01/14 02:52:12;;;;;;;;;;;;;;;5.74;83.98;100458.27;105055;1288;74753;-72
2023/01/14 02:54:37;;;;;;;;;;;;;;;5.73;83.89;100466.14;105100;1288;61465;-72
2023/01/14 02:57:23;;;;;;;;;;;;;;;5.73;83.96;100471.27;105782;1288;61235;-72
2023/01/14 02:59:48;;;;;;;;;;;;;;;5.73;83.93;100469.56;104846;1287;61833;-72
2023/01/14 03:02:24;;;;;;;;;;;;;;;5.76;83.99;100476.58;105242;1291;61315;-72
2023/01/14 03:05:16;;;;;;;;;;;;;;;5.77;83.90;100475.55;105194;1288;73323;-72
2023/01/14 03:07:55;;;;;;;;;;;;;;;5.78;83.89;100476.41;104904;1288;66599;-72
2023/01/14 03:10:28;;;;;;;;;;;;;;;5.79;83.88;100478.46;105180;1288;72967;-73
2023/01/14 03:13:09;;;;;;;;;;;;;;;5.79;83.85;100484.63;105854;1287;61266;-73
2023/01/14 03:15:38;;;;;;;;;;;;;;;5.77;83.80;100485.98;105174;1288;61061;-73
2023/01/14 03:18:04;;;;;;;;;;;;;;;5.75;83.75;100484.78;105071;1288;75520;-73
2023/01/14 03:20:31;;;;;;;;;;;;;;;5.73;83.77;100487.01;105286;1287;61299;-73
2023/01/14 03:22:58;;;;;;;;;;;;;;;5.72;83.85;100494.02;105224;1291;61149;-73
2023/01/14 03:25:25;;;;;;;;;;;;;;;5.73;83.84;100491.97;105217;1288;61167;-73
2023/01/14 03:27:52;;;;;;;;;;;;;;;5.74;83.82;100497.95;105272;1288;61139;-73
2023/01/14 03:30:21;;;;;;;;;;;;;;;5.75;83.84;100503.42;105209;1288;72377;-72
2023/01/14 03:32:50;;;;;;;;;;;;;;;5.77;83.90;100508.56;105184;1289;67869;-72
2023/01/14 03:35:21;;;;;;;;;;;;;;;5.79;83.85;100506.86;105272;1287;72368;-72
2023/01/14 03:38:03;;;;;;;;;;;;;;;5.81;83.85;100509.95;105239;1288;59625;-73
2023/01/14 03:40:31;;;;;;;;;;;;;;;5.83;83.84;100507.72;105203;1288;61155;-72
2023/01/14 03:43:04;;;;;;;;;;;;;;;5.84;83.84;100504.30;105044;1290;75253;-72
2023/01/14 03:45:33;;;;;;;;;;;;;;;5.85;83.80;100509.27;105258;1289;69585;-72
2023/01/14 03:47:58;;;;;;;;;;;;;;;5.87;83.78;100508.59;105205;1288;72468;-72
2023/01/14 03:50:29;;;;;;;;;;;;;;;5.88;83.76;100515.09;105195;1288;61305;-73
2023/01/14 03:53:08;;;;;;;;;;;;;;;5.89;83.76;100517.85;105266;1288;61791;-73
2023/01/14 03:55:42;;;;;;;;;;;;;;;5.90;83.81;100520.42;105240;1288;73116;-73
2023/01/14 03:58:07;;;;;;;;;;;;;;;5.91;83.78;100521.45;105222;1288;67919;-73
2023/01/14 04:00:36;;;;;;;;;;;;;;;5.91;83.72;100528.98;105196;1288;61724;-73
2023/01/14 04:03:05;;;;;;;;;;;;;;;5.92;83.70;100532.06;105178;1291;60992;-73
2023/01/14 04:05:31;;;;;;;;;;;;;;;5.93;83.67;100534.63;105265;1288;61228;-73
2023/01/14 04:07:57;;;;;;;;;;;;;;;5.92;83.72;100539.59;105073;1288;61331;-73
2023/01/14 04:10:23;;;;;;;;;;;;;;;5.93;83.72;100544.89;105240;1288;59650;-73
2023/01/14 04:15:32;;;;;;;;;;;;;;;5.94;83.75;100551.73;105187;1288;59744;-73
2023/01/14 04:17:57;;;;;;;;;;;;;;;5.94;83.61;100550.55;105109;1288;61927;-73
2023/01/14 04:20:23;;;;;;;;;;;;;;;5.95;83.70;100550.37;105228;1288;61268;-72
2023/01/14 04:22:48;;;;;;;;;;;;;;;5.95;83.67;100547.98;105254;1291;61314;-72
2023/01/14 04:25:14;;;;;;;;;;;;;;;5.94;83.61;100549.35;105117;1294;61251;-73
2023/01/14 04:27:39;;;;;;;;;;;;;;;5.94;83.63;100547.29;105244;1287;59840;-73
2023/01/14 04:30:05;;;;;;;;;;;;;;;5.95;83.60;100549.00;105097;1292;59751;-73
2023/01/14 04:32:30;;;;;;;;;;;;;;;5.94;83.57;100549.52;105775;1287;61237;-72
2023/01/14 04:34:56;;;;;;;;;;;;;;;5.92;83.54;100550.54;105321;1291;61844;-72
2023/01/14 04:37:21;;;;;;;;;;;;;;;5.90;83.53;100552.41;105124;1288;59239;-72
2023/01/14 04:39:46;;;;;;;;;;;;;;;5.87;83.52;100561.44;105068;1288;61292;-72
2023/01/14 04:42:27;;;;;;;;;;;;;;;5.84;83.57;100564.00;105249;1288;61281;-72
2023/01/14 04:44:53;;;;;;;;;;;;;;;5.82;83.45;100568.45;105114;1288;71569;-72
2023/01/14 04:47:19;;;;;;;;;;;;;;;5.78;83.47;100571.85;105268;1289;61071;-72
2023/01/14 04:49:44;;;;;;;;;;;;;;;5.75;83.47;100577.48;105284;1288;62477;-72
2023/01/14 04:52:09;;;;;;;;;;;;;;;5.73;83.52;100578.67;105096;1289;61393;-72
2023/01/14 04:54:35;;;;;;;;;;;;;;;5.70;83.51;100584.34;105084;1290;59457;-72
2023/01/14 04:57:00;;;;;;;;;;;;;;;5.67;83.48;100587.41;105225;1288;61268;-72
2023/01/14 04:59:25;;;;;;;;;;;;;;;5.64;83.46;100589.80;105135;1288;60330;-72
2023/01/14 05:01:50;;;;;;;;;;;;;;;5.62;83.50;100588.92;105109;1289;61265;-72
2023/01/14 05:04:16;;;;;;;;;;;;;;;5.60;83.56;100588.24;105318;1288;61246;-72
2023/01/14 05:06:41;;;;;;;;;;;;;;;5.60;83.61;100591.66;105286;1287;61245;-72
2023/01/14 05:09:07;;;;;;;;;;;;;;;5.62;83.58;100596.45;105306;1289;59515;-72
2023/01/14 05:11:32;;;;;;;;;;;;;;;5.64;83.60;100599.02;105238;1288;61369;-72
2023/01/14 05:13:57;;;;;;;;;;;;;;;5.66;83.57;100602.98;105044;1287;61273;-72
2023/01/14 05:16:23;;;;;;;;;;;;;;;5.69;83.62;100604.36;105310;1291;61282;-73
2023/01/14 05:18:49;;;;;;;;;;;;;;;5.72;83.63;100606.05;105261;1291;61265;-72
2023/01/14 05:21:14;;;;;;;;;;;;;;;5.76;83.60;100607.93;105233;1288;59525;-72
2023/01/14 05:23:39;;;;;;;;;;;;;;;5.79;83.62;100611.02;105249;1288;59647;-72
2023/01/14 05:26:05;;;;;;;;;;;;;;;5.82;83.60;100609.32;105225;1288;61275;-72
2023/01/14 05:28:31;;;;;;;;;;;;;;;5.84;83.57;100615.66;105294;1288;61451;-72
2023/01/14 05:30:56;;;;;;;;;;;;;;;5.86;83.61;100623.36;105290;1288;74718;-72
2023/01/14 05:33:21;;;;;;;;;;;;;;;5.88;83.59;100624.56;105159;1288;60508;-72
2023/01/14 05:35:47;;;;;;;;;;;;;;;5.89;83.61;100631.10;105278;1287;59963;-73
2023/01/14 05:38:13;;;;;;;;;;;;;;;5.90;83.59;100633.68;105208;1288;60531;-73
2023/01/14 05:40:38;;;;;;;;;;;;;;;5.91;83.56;100630.95;105316;1291;59208;-73
2023/01/14 05:45:48;;;;;;;;;;;;;;;5.94;83.54;100631.98;105208;1288;72719;-73
2023/01/14 05:48:18;;;;;;;;;;;;;;;5.95;83.51;100633.70;105220;1288;59788;-73
2023/01/14 05:50:43;;;;;;;;;;;;;;;5.96;83.46;100635.40;105219;1288;61189;-73
2023/01/14 05:53:08;;;;;;;;;;;;;;;5.96;83.50;100639.85;105203;1288;61377;-73
2023/01/14 05:55:34;;;;;;;;;;;;;;;5.97;83.45;100644.65;105079;1291;61395;-73
2023/01/14 05:58:00;;;;;;;;;;;;;;;5.97;83.47;100646.02;105266;1288;61251;-73
2023/01/14 06:06:23;;;;;;;;;;;;;;;6.02;83.51;100651.17;105208;1287;68473;-73
2023/01/14 06:08:58;;;;;;;;;;;;;;;6.03;83.50;100660.41;105092;1289;71336;-73
2023/01/14 06:11:25;;;;;;;;;;;;;;;6.05;83.49;100659.91;105219;1288;59646;-73
2023/01/14 06:13:56;;;;;;;;;;;;;;;6.06;83.42;100659.23;105222;1288;61263;-73
2023/01/14 06:16:22;;;;;;;;;;;;;;;6.06;83.47;100659.40;105063;1288;72522;-73
2023/01/14 06:18:47;;;;;;;;;;;;;;;6.08;83.51;100659.75;105322;1288;61371;-73
2023/01/14 06:21:14;;;;;;;;;;;;;;;6.09;83.50;100664.71;105310;1288;61269;-73
2023/01/14 06:23:39;;;;;;;;;;;;;;;6.10;83.49;100667.97;105036;1288;61301;-73
2023/01/14 06:26:13;;;;;;;;;;;;;;;6.10;83.45;100670.54;105252;1288;61263;-73
2023/01/14 06:28:38;;;;;;;;;;;;;;;6.11;83.50;100676.70;105096;1289;73672;-73
2023/01/14 06:31:12;;;;;;;;;;;;;;;6.13;83.45;100679.44;105282;1288;68886;-73
2023/01/14 06:33:38;;;;;;;;;;;;;;;6.13;83.48;100682.86;105062;1288;72118;-73
2023/01/14 06:36:03;;;;;;;;;;;;;;;6.15;83.47;100689.89;105105;1294;61241;-73
2023/01/14 06:38:29;;;;;;;;;;;;;;;6.15;83.43;100693.83;105306;1287;61232;-73
2023/01/14 06:40:57;;;;;;;;;;;;;;;6.16;83.50;100691.44;105088;1293;59376;-73
2023/01/14 06:43:23;;;;;;;;;;;;;;;6.17;83.40;100692.98;105123;1294;61270;-73
2023/01/14 06:45:52;;;;;;;;;;;;;;;6.17;83.43;100687.33;105235;1287;61252;-73
2023/01/14 06:48:17;;;;;;;;;;;;;;;6.17;83.41;100694.35;105236;1291;61127;-73
2023/01/14 06:50:43;;;;;;;;;;;;;;;6.17;83.41;100696.57;105243;1287;61267;-73
2023/01/14 06:53:08;;;;;;;;;;;;;;;6.17;83.34;100697.60;105197;1288;61261;-73
2023/01/14 06:55:33;;;;;;;;;;;;;;;6.17;83.37;100702.39;105272;1289;61267;-73
2023/01/14 06:57:59;;;;;;;;;;;;;;;6.18;83.38;100707.18;105222;1288;61279;-73
2023/01/14 07:00:24;;;;;;;;;;;;;;;6.17;83.41;100700.85;105244;1288;59613;-73
2023/01/14 07:02:49;;;;;;;;;;;;;;;6.18;83.44;100702.73;105365;1288;61374;-73
2023/01/14 07:05:16;;;;;;;;;;;;;;;6.18;83.48;100706.67;105303;1288;61257;-73
2023/01/14 07:07:43;;;;;;;;;;;;;;;6.18;83.36;100709.41;105242;1288;61110;-73
2023/01/14 07:10:09;;;;;;;;;;;;;;;6.18;83.40;100713.00;105247;1288;59098;-73
2023/01/14 07:12:34;;;;;;;;;;;;;;;6.18;83.40;100715.91;105210;1288;59395;-73
2023/01/14 07:14:59;;;;;;;;;;;;;;;6.18;83.38;100717.80;105194;1287;59402;-73
2023/01/14 07:17:24;;;;;;;;;;;;;;;6.18;83.32;100719.52;105205;1288;61285;-73
2023/01/14 07:19:50;;;;;;;;;;;;;;;6.17;83.34;100724.30;105238;1291;61286;-73
2023/01/14 07:22:16;;;;;;;;;;;;;;;6.17;83.31;100731.48;105217;1288;61987;-73
2023/01/14 07:24:41;;;;;;;;;;;;;;;6.17;83.36;100734.57;105213;1287;61212;-73
2023/01/14 07:27:06;;;;;;;;;;;;;;;6.17;83.33;100735.08;105237;1287;70897;-73
2023/01/14 07:29:31;;;;;;;;;;;;;;;6.17;83.38;100738.00;105025;1288;61458;-73
2023/01/14 07:31:57;;;;;;;;;;;;;;;6.18;83.36;100738.34;105074;1288;60495;-73
2023/01/14 07:34:23;;;;;;;;;;;;;;;6.19;83.35;100737.83;105137;1288;63624;-73
2023/01/14 07:36:48;;;;;;;;;;;;;;;6.20;83.30;100739.89;105173;1288;61363;-73
2023/01/14 07:39:13;;;;;;;;;;;;;;;6.19;83.29;100742.45;105185;1288;60056;-73
2023/01/14 07:41:39;;;;;;;;;;;;;;;6.19;83.26;100746.56;105214;1287;61228;-73
2023/01/14 07:44:04;;;;;;;;;;;;;;;6.18;83.29;100745.19;106199;1288;58964;-73
2023/01/14 07:46:30;;;;;;;;;;;;;;;6.19;83.37;100752.39;106279;1288;59024;-73
2023/01/14 07:48:56;;;;;;;;;;;;;;;6.21;83.40;100752.21;106077;1287;59986;-73
2023/01/14 07:51:23;;;;;;;;;;;;;;;6.23;83.41;100755.48;106079;1288;60233;-73
2023/01/14 07:53:49;;;;;;;;;;;;;;;6.24;83.33;100756.48;106262;1286;73931;-73
2023/01/14 07:56:14;;;;;;;;;;;;;;;6.28;83.33;100755.98;106109;1288;58914;-73
2023/01/14 07:58:39;;;;;;;;;;;;;;;6.29;83.25;100757.52;106212;1288;59506;-73
2023/01/14 08:01:06;;;;;;;;;;;;;;;6.28;83.29;100760.09;106264;1288;59094;-73
2023/01/14 08:03:31;;;;;;;;;;;;;;;6.29;83.25;100765.05;106314;1288;58872;-73
2023/01/14 08:05:59;;;;;;;;;;;;;;;6.29;83.30;100765.23;106360;1288;59493;-74
2023/01/14 08:08:25;;;;;;;;;;;;;;;6.31;83.30;100772.94;106103;1289;71294;-73
2023/01/14 08:10:50;;;;;;;;;;;;;;;6.32;83.29;100770.72;106231;1286;59714;-73
2023/01/14 08:13:15;;;;;;;;;;;;;;;6.30;83.23;100771.91;106283;1287;58918;-73
2023/01/14 08:15:41;;;;;;;;;;;;;;;6.28;83.34;100776.17;106265;1288;59115;-73
2023/01/14 08:18:07;;;;;;;;;;;;;;;6.30;83.36;100776.52;106305;1287;58893;-73
2023/01/14 08:20:32;;;;;;;;;;;;;;;6.35;83.41;100779.97;106142;1288;59021;-73
2023/01/14 08:22:59;;;;;;;;;;;;;;;6.39;83.47;100778.96;106236;1288;59830;-73
2023/01/14 08:25:25;;;;;;;;;;;;;;;6.44;83.47;100779.14;106045;1289;59165;-73
2023/01/14 08:27:50;;;;;;;;;;;;;;;6.47;83.48;100779.00;105952;1294;59418;-73
2023/01/14 08:30:15;;;;;;;;;;;;;;;6.50;83.40;100784.30;105018;1289;61285;-73
2023/01/14 08:32:41;;;;;;;;;;;;;;;6.52;83.44;100783.80;105047;1288;61977;-73
2023/01/14 08:35:07;;;;;;;;;;;;;;;6.55;83.39;100784.16;105141;1293;74305;-73
2023/01/14 08:37:33;;;;;;;;;;;;;;;6.58;83.43;100788.11;105066;1288;61270;-73
2023/01/14 08:39:59;;;;;;;;;;;;;;;6.62;83.45;100791.54;105139;1288;60142;-73
2023/01/14 08:42:24;;;;;;;;;;;;;;;6.67;83.51;100788.98;105001;1288;60988;-73
2023/01/14 08:44:49;;;;;;;;;;;;;;;6.72;83.44;100792.09;105205;1289;59221;-73
2023/01/14 08:47:15;;;;;;;;;;;;;;;6.76;83.46;100787.97;105105;1288;61228;-73
2023/01/14 08:49:40;;;;;;;;;;;;;;;6.80;83.46;100788.48;105067;1288;61267;-73
2023/01/14 08:52:05;;;;;;;;;;;;;;;6.83;83.38;100791.74;105146;1291;59286;-73
2023/01/14 08:54:31;;;;;;;;;;;;;;;6.86;83.34;100795.85;105069;1291;61284;-73
2023/01/14 08:56:56;;;;;;;;;;;;;;;6.93;83.43;100795.88;105195;1288;59309;-73
2023/01/14 08:59:23;;;;;;;;;;;;;;;6.99;83.39;100804.29;105032;1290;61467;-73
2023/01/14 09:01:48;;;;;;;;;;;;;;;7.08;83.29;100804.47;105996;1288;59136;-73
2023/01/14 09:04:13;;;;;;;;;;;;;;;7.14;83.30;100809.45;106206;1288;59046;-73
2023/01/14 09:17:39;;;;;;;;;;;;;;;7.27;83.29;100816.99;105006;1288;59642;-74
2023/01/14 09:20:08;;;;;;;;;;;;;;;7.26;83.37;100817.52;105199;1288;61286;-73
2023/01/14 09:22:33;;;;;;;;;;;;;;;7.25;83.37;100818.04;105115;1291;68286;-73
2023/01/14 09:24:58;;;;;;;;;;;;;;;7.23;83.41;100820.44;105182;1288;59600;-73
2023/01/14 09:27:25;;;;;;;;;;;;;;;7.21;83.37;100815.11;105214;1289;61499;-73
2023/01/14 09:29:51;;;;;;;;;;;;;;;7.20;83.46;100813.58;105221;1288;61235;-73
2023/01/14 09:32:17;;;;;;;;;;;;;;;7.23;83.58;100812.88;105146;1288;61374;-73
2023/01/14 09:34:48;;;;;;;;;;;;;;;7.28;83.55;100811.14;105231;1288;61275;-73
2023/01/14 09:37:15;;;;;;;;;;;;;;;7.31;83.51;100812.17;106310;1287;72510;-73
2023/01/14 09:39:40;;;;;;;;;;;;;;;7.34;83.50;100806.17;106266;1287;59316;-73
2023/01/14 09:42:14;;;;;;;;;;;;;;;7.36;83.53;100807.89;106064;1288;59548;-74
2023/01/14 09:44:40;;;;;;;;;;;;;;;7.37;83.54;100808.07;106261;1287;73829;-74
2023/01/14 09:47:09;;;;;;;;;;;;;;;7.40;83.52;100809.09;105049;1294;61243;-73
2023/01/14 09:49:35;;;;;;;;;;;;;;;7.44;83.53;100806.35;105200;1288;72035;-73
2023/01/14 09:52:08;;;;;;;;;;;;;;;7.47;83.51;100802.41;105243;1288;59116;-73
2023/01/14 09:54:38;;;;;;;;;;;;;;;7.44;83.49;100798.98;105172;1287;59935;-73
2023/01/14 09:57:14;;;;;;;;;;;;;;;7.42;83.40;100801.03;105062;1288;75001;-73
2023/01/14 09:59:48;;;;;;;;;;;;;;;7.41;83.47;100806.17;105110;1291;67867;-73
2023/01/14 10:02:17;;;;;;;;;;;;;;;7.40;83.44;100797.60;105177;1288;71727;-73
2023/01/14 10:04:42;;;;;;;;;;;;;;;7.38;83.41;100792.63;105201;1289;61167;-74
2023/01/14 10:07:10;;;;;;;;;;;;;;;7.37;83.36;100794.52;105190;1289;61358;-73
2023/01/14 10:09:40;;;;;;;;;;;;;;;7.37;83.46;100795.89;105204;1287;73830;-73
2023/01/14 10:12:09;;;;;;;;;;;;;;;7.37;83.36;100799.83;105225;1288;68120;-73
2023/01/14 10:14:40;;;;;;;;;;;;;;;7.39;83.43;100792.98;105009;1288;72879;-73
2023/01/14 10:17:09;;;;;;;;;;;;;;;7.39;83.40;100791.77;105220;1288;61262;-73
2023/01/14 10:19:42;;;;;;;;;;;;;;;7.41;83.36;100799.31;105108;1289;61607;-73
2023/01/14 10:22:14;;;;;;;;;;;;;;;7.44;83.38;100802.05;105025;1293;74070;-73
2023/01/14 10:24:41;;;;;;;;;;;;;;;7.47;83.34;100795.03;105191;1288;68546;-73
2023/01/14 10:27:15;;;;;;;;;;;;;;;7.49;83.25;100795.20;105006;1291;73344;-73
2023/01/14 10:29:41;;;;;;;;;;;;;;;7.51;83.23;100791.95;105156;1289;61325;-73
2023/01/14 10:32:09;;;;;;;;;;;;;;;7.52;83.12;100787.14;105256;1288;59488;-73
2023/01/14 10:34:40;;;;;;;;;;;;;;;7.53;83.15;100774.10;105195;1289;73975;-73
2023/01/14 10:37:06;;;;;;;;;;;;;;;7.54;83.12;100768.61;105181;1288;67853;-73
2023/01/14 10:39:31;;;;;;;;;;;;;;;7.55;83.09;100761.06;105193;1291;61383;-73
2023/01/14 10:42:00;;;;;;;;;;;;;;;7.56;83.07;100759.17;105061;1287;60082;-73
2023/01/14 10:44:37;;;;;;;;;;;;;;;7.58;82.99;100758.14;105092;1288;61160;-73
2023/01/14 10:47:12;;;;;;;;;;;;;;;7.59;83.02;100758.31;105195;1288;73577;-73
2023/01/14 10:49:40;;;;;;;;;;;;;;;7.61;83.02;100753.16;105245;1289;68332;-73
2023/01/14 10:52:21;;;;;;;;;;;;;;;7.65;82.98;100752.64;105226;1288;70561;-73
2023/01/14 10:55:02;;;;;;;;;;;;;;;7.69;83.03;100755.04;105209;1288;59561;-73
2023/01/14 10:57:28;;;;;;;;;;;;;;;7.73;82.94;100749.36;105208;1288;59971;-73
2023/01/14 10:59:55;;;;;;;;;;;;;;;7.75;82.99;100747.30;105216;1291;59953;-73
2023/01/14 11:02:26;;;;;;;;;;;;;;;7.78;82.94;100754.34;105220;1288;61096;-73
2023/01/14 11:04:52;;;;;;;;;;;;;;;7.81;82.87;100756.01;105264;1288;71266;-74
2023/01/14 11:07:24;;;;;;;;;;;;;;;7.86;82.97;100762.35;105172;1288;60520;-73
2023/01/14 11:09:50;;;;;;;;;;;;;;;7.92;82.98;100757.52;105099;1289;61352;-73
2023/01/14 11:12:31;;;;;;;;;;;;;;;7.98;82.81;100757.17;105286;1288;61332;-73
2023/01/14 11:14:57;;;;;;;;;;;;;;;8.03;82.78;100753.02;105259;1289;69031;-73
2023/01/14 11:17:27;;;;;;;;;;;;;;;8.05;82.72;100745.13;105130;1294;59293;-73
2023/01/14 11:20:13;;;;;;;;;;;;;;;8.09;82.79;100740.99;105215;1288;61385;-73
2023/01/14 11:22:38;;;;;;;;;;;;;;;8.13;82.82;100741.32;105267;1288;61056;-73
2023/01/14 11:25:03;;;;;;;;;;;;;;;8.19;82.70;100740.61;105204;1291;61227;-73
2023/01/14 11:27:31;;;;;;;;;;;;;;;8.20;82.52;100738.20;105212;1291;61218;-73
2023/01/14 11:29:57;;;;;;;;;;;;;;;8.19;82.44;100733.05;105190;1291;61363;-73
2023/01/14 11:32:28;;;;;;;;;;;;;;;8.21;82.54;100732.53;105217;1292;61281;-73
2023/01/14 11:34:55;;;;;;;;;;;;;;;8.20;82.32;100730.30;105116;1288;61221;-73
2023/01/14 11:37:25;;;;;;;;;;;;;;;8.20;82.32;100724.98;105037;1288;73845;-73
2023/01/14 11:39:53;;;;;;;;;;;;;;;8.23;82.39;100720.16;105200;1291;66811;-73
2023/01/14 11:42:37;;;;;;;;;;;;;;;8.25;82.35;100721.34;105268;1291;73198;-73
2023/01/14 11:45:11;;;;;;;;;;;;;;;8.27;82.25;100721.52;105140;1287;61141;-74
2023/01/14 11:47:53;;;;;;;;;;;;;;;8.28;82.29;100725.11;105202;1289;60612;-73
2023/01/14 11:50:26;;;;;;;;;;;;;;;8.29;82.20;100726.14;105224;1288;75406;-73
2023/01/14 11:53:04;;;;;;;;;;;;;;;8.32;82.34;100723.20;105036;1288;68632;-73
2023/01/14 11:55:34;;;;;;;;;;;;;;;8.33;82.11;100719.25;105197;1288;72305;-73
2023/01/14 11:58:19;;;;;;;;;;;;;;;8.34;82.14;100716.33;105216;1288;61269;-74
2023/01/14 12:00:57;;;;;;;;;;;;;;;8.36;82.13;100712.71;105195;1289;61027;-73
2023/01/14 12:03:39;;;;;;;;;;;;;;;8.38;82.19;100710.81;105242;1289;73915;-73
2023/01/14 12:06:06;;;;;;;;;;;;;;;8.39;82.16;100712.17;105236;1288;69056;-73
2023/01/14 12:08:35;;;;;;;;;;;;;;;8.39;82.12;100713.55;105048;1292;71999;-73
2023/01/14 12:11:01;;;;;;;;;;;;;;;8.39;82.06;100711.32;105201;1289;61657;-73
2023/01/14 12:16:48;;;;;;;;;;;;;;;8.34;81.89;100706.71;105169;1289;73736;-73
2023/01/14 12:19:26;;;;;;;;;;;;;;;8.34;81.96;100702.59;105128;1288;69379;-73
2023/01/14 12:21:59;;;;;;;;;;;;;;;8.33;82.00;100703.11;105145;1291;73697;-73
2023/01/14 12:24:24;;;;;;;;;;;;;;;8.33;81.92;100698.98;105229;1287;59941;-73
2023/01/14 12:26:51;;;;;;;;;;;;;;;8.31;81.66;100698.64;105195;1291;61294;-73
2023/01/14 12:29:21;;;;;;;;;;;;;;;8.31;81.86;100692.63;105212;1288;59414;-73
2023/01/14 12:31:54;;;;;;;;;;;;;;;8.35;81.99;100684.71;105178;1288;68192;-73
2023/01/14 12:34:21;;;;;;;;;;;;;;;8.38;81.84;100679.20;105072;1289;72338;-73
2023/01/14 12:36:50;;;;;;;;;;;;;;;8.39;81.75;100675.08;105206;1289;61342;-73
2023/01/14 12:45:44;;;;;;;;;;;;;;;8.33;81.71;100657.08;105248;1288;67428;-73
2023/01/14 12:48:20;;;;;;;;;;;;;;;8.33;81.80;100655.35;105089;1292;72327;-73
2023/01/14 12:51:01;;;;;;;;;;;;;;;8.33;81.75;100647.96;105151;1289;59624;-73
2023/01/14 12:53:28;;;;;;;;;;;;;;;8.32;81.56;100638.37;105236;1287;61078;-73
2023/01/14 12:55:55;;;;;;;;;;;;;;;8.29;81.43;100632.54;105215;1292;73505;-73
2023/01/14 12:58:23;;;;;;;;;;;;;;;8.26;81.58;100627.75;105190;1291;67589;-74
2023/01/14 13:00:54;;;;;;;;;;;;;;;8.24;81.60;100624.15;105156;1289;72056;-73
2023/01/14 13:03:45;;;;;;;;;;;;;;;8.22;81.70;100624.34;105115;1288;59339;-73
2023/01/14 13:06:14;;;;;;;;;;;;;;;8.21;81.69;100621.95;105126;1289;63553;-73
2023/01/14 13:08:40;;;;;;;;;;;;;;;8.20;81.62;100617.66;105153;1289;75047;-73
2023/01/14 13:11:12;;;;;;;;;;;;;;;8.19;81.48;100615.95;105224;1289;61141;-73
2023/01/14 13:13:41;;;;;;;;;;;;;;;8.15;81.36;100614.25;105183;1291;73282;-73
2023/01/14 13:16:26;;;;;;;;;;;;;;;8.11;81.31;100610.16;105161;1291;61258;-73